sensor_id;sensor_type;location;lat;lon;timestamp;P1;durP1;ratioP1;P2;durP2;ratioP2
47784;SDS011;35233;55.686;37.848;2023-07-20T00:01:23;4.28;;;2.22;;
47784;SDS011;35233;55.686;37.848;2023-07-20T00:03:48;3.70;;;2.20;;
47784;SDS011;35233;55.686;37.848;2023-07-20T00:06:19;6.95;;;2.28;;
47784;SDS011;35233;55.686;37.848;2023-07-20T00:08:49;3.47;;;2.10;;
47784;SDS011;35233;55.686;37.848;2023-07-20T00:11:14;4.10;;;2.13;;
47784;SDS011;35233;55.686;37.848;2023-07-20T00:13:40;9.07;;;2.65;;
47784;SDS011;35233;55.686;37.848;2023-07-20T00:16:06;3.50;;;1.83;;
47784;SDS011;35233;55.686;37.848;2023-07-20T00:18:31;4.43;;;2.20;;
47784;SDS011;35233;55.686;37.848;2023-07-20T00:20:57;6.60;;;2.42;;
47784;SDS011;35233;55.686;37.848;2023-07-20T00:23:24;5.85;;;2.35;;
47784;SDS011;35233;55.686;37.848;2023-07-20T00:25:50;5.07;;;2.08;;
47784;SDS011;35233;55.686;37.848;2023-07-20T00:28:16;3.17;;;2.08;;
47784;SDS011;35233;55.686;37.848;2023-07-20T00:30:41;3.67;;;2.17;;
47784;SDS011;35233;55.686;37.848;2023-07-20T00:33:10;4.90;;;1.92;;
47784;SDS011;35233;55.686;37.848;2023-07-20T00:35:37;4.20;;;2.03;;
47784;SDS011;35233;55.686;37.848;2023-07-20T00:38:05;3.05;;;1.70;;
47784;SDS011;35233;55.686;37.848;2023-07-20T00:40:37;2.58;;;1.90;;
47784;SDS011;35233;55.686;37.848;2023-07-20T00:43:03;4.00;;;1.88;;
47784;SDS011;35233;55.686;37.848;2023-07-20T00:45:29;5.25;;;2.20;;
47784;SDS011;35233;55.686;37.848;2023-07-20T00:47:55;4.43;;;1.98;;
47784;SDS011;35233;55.686;37.848;2023-07-20T00:50:23;4.05;;;1.85;;
47784;SDS011;35233;55.686;37.848;2023-07-20T00:52:49;3.03;;;1.90;;
47784;SDS011;35233;55.686;37.848;2023-07-20T00:55:15;3.55;;;1.88;;
47784;SDS011;35233;55.686;37.848;2023-07-20T00:57:40;6.07;;;2.15;;
47784;SDS011;35233;55.686;37.848;2023-07-20T01:00:06;4.53;;;2.17;;
47784;SDS011;35233;55.686;37.848;2023-07-20T01:02:33;6.07;;;2.35;;
47784;SDS011;35233;55.686;37.848;2023-07-20T01:04:58;3.63;;;1.90;;
47784;SDS011;35233;55.686;37.848;2023-07-20T01:07:31;5.63;;;2.20;;
47784;SDS011;35233;55.686;37.848;2023-07-20T01:10:10;5.15;;;2.08;;
47784;SDS011;35233;55.686;37.848;2023-07-20T01:12:43;2.85;;;1.90;;
47784;SDS011;35233;55.686;37.848;2023-07-20T01:15:15;4.45;;;2.28;;
47784;SDS011;35233;55.686;37.848;2023-07-20T01:17:41;5.53;;;2.30;;
47784;SDS011;35233;55.686;37.848;2023-07-20T01:20:07;3.63;;;2.20;;
47784;SDS011;35233;55.686;37.848;2023-07-20T01:33:23;3.22;;;1.80;;
47784;SDS011;35233;55.686;37.848;2023-07-20T01:36:00;3.50;;;2.10;;
47784;SDS011;35233;55.686;37.848;2023-07-20T01:38:27;3.65;;;2.00;;
47784;SDS011;35233;55.686;37.848;2023-07-20T01:40:54;3.90;;;1.92;;
47784;SDS011;35233;55.686;37.848;2023-07-20T01:43:20;4.57;;;2.22;;
47784;SDS011;35233;55.686;37.848;2023-07-20T01:45:46;4.32;;;2.53;;
47784;SDS011;35233;55.686;37.848;2023-07-20T01:48:12;5.28;;;2.22;;
47784;SDS011;35233;55.686;37.848;2023-07-20T01:50:37;2.55;;;1.80;;
47784;SDS011;35233;55.686;37.848;2023-07-20T01:53:03;3.30;;;1.77;;
47784;SDS011;35233;55.686;37.848;2023-07-20T01:55:28;4.32;;;2.00;;
47784;SDS011;35233;55.686;37.848;2023-07-20T01:57:55;3.40;;;2.15;;
47784;SDS011;35233;55.686;37.848;2023-07-20T02:00:20;4.32;;;2.40;;
47784;SDS011;35233;55.686;37.848;2023-07-20T02:02:49;4.80;;;2.20;;
47784;SDS011;35233;55.686;37.848;2023-07-20T02:05:15;2.90;;;1.98;;
47784;SDS011;35233;55.686;37.848;2023-07-20T02:07:41;2.80;;;2.08;;
47784;SDS011;35233;55.686;37.848;2023-07-20T02:10:07;3.88;;;2.50;;
47784;SDS011;35233;55.686;37.848;2023-07-20T02:12:32;3.92;;;2.20;;
47784;SDS011;35233;55.686;37.848;2023-07-20T02:14:58;5.40;;;2.00;;
47784;SDS011;35233;55.686;37.848;2023-07-20T02:17:23;5.90;;;2.22;;
47784;SDS011;35233;55.686;37.848;2023-07-20T02:19:52;3.83;;;2.33;;
47784;SDS011;35233;55.686;37.848;2023-07-20T02:22:20;3.10;;;1.75;;
47784;SDS011;35233;55.686;37.848;2023-07-20T02:24:46;3.80;;;1.80;;
47784;SDS011;35233;55.686;37.848;2023-07-20T02:27:11;2.97;;;2.00;;
47784;SDS011;35233;55.686;37.848;2023-07-20T02:29:37;7.03;;;2.00;;
47784;SDS011;35233;55.686;37.848;2023-07-20T02:32:03;4.75;;;2.28;;
47784;SDS011;35233;55.686;37.848;2023-07-20T02:34:28;3.45;;;1.75;;
47784;SDS011;35233;55.686;37.848;2023-07-20T02:36:54;3.22;;;1.90;;
47784;SDS011;35233;55.686;37.848;2023-07-20T02:39:21;5.30;;;1.95;;
47784;SDS011;35233;55.686;37.848;2023-07-20T02:41:47;2.20;;;1.80;;
47784;SDS011;35233;55.686;37.848;2023-07-20T02:44:15;3.83;;;1.80;;
47784;SDS011;35233;55.686;37.848;2023-07-20T02:46:40;5.25;;;1.90;;
47784;SDS011;35233;55.686;37.848;2023-07-20T02:49:06;3.30;;;1.52;;
47784;SDS011;35233;55.686;37.848;2023-07-20T02:51:31;6.05;;;2.30;;
47784;SDS011;35233;55.686;37.848;2023-07-20T02:53:57;2.38;;;1.73;;
47784;SDS011;35233;55.686;37.848;2023-07-20T02:56:22;3.70;;;1.90;;
47784;SDS011;35233;55.686;37.848;2023-07-20T02:58:48;2.92;;;1.65;;
47784;SDS011;35233;55.686;37.848;2023-07-20T03:01:13;4.82;;;1.55;;
47784;SDS011;35233;55.686;37.848;2023-07-20T03:03:40;3.78;;;1.90;;
47784;SDS011;35233;55.686;37.848;2023-07-20T03:06:11;2.67;;;1.67;;
47784;SDS011;35233;55.686;37.848;2023-07-20T03:08:41;3.22;;;1.58;;
47784;SDS011;35233;55.686;37.848;2023-07-20T03:11:10;3.55;;;2.00;;
47784;SDS011;35233;55.686;37.848;2023-07-20T03:13:36;4.82;;;1.60;;
47784;SDS011;35233;55.686;37.848;2023-07-20T03:16:01;3.65;;;1.60;;
47784;SDS011;35233;55.686;37.848;2023-07-20T03:18:27;2.63;;;1.63;;
47784;SDS011;35233;55.686;37.848;2023-07-20T03:20:52;2.72;;;1.63;;
47784;SDS011;35233;55.686;37.848;2023-07-20T03:23:18;2.47;;;1.40;;
47784;SDS011;35233;55.686;37.848;2023-07-20T03:25:43;4.53;;;1.60;;
47784;SDS011;35233;55.686;37.848;2023-07-20T03:28:09;5.05;;;1.75;;
47784;SDS011;35233;55.686;37.848;2023-07-20T03:30:34;3.42;;;1.80;;
47784;SDS011;35233;55.686;37.848;2023-07-20T03:33:00;1.67;;;1.45;;
47784;SDS011;35233;55.686;37.848;2023-07-20T03:35:25;3.42;;;1.70;;
47784;SDS011;35233;55.686;37.848;2023-07-20T03:37:51;3.42;;;2.15;;
47784;SDS011;35233;55.686;37.848;2023-07-20T03:40:17;4.68;;;1.63;;
47784;SDS011;35233;55.686;37.848;2023-07-20T03:42:42;1.40;;;1.20;;
47784;SDS011;35233;55.686;37.848;2023-07-20T03:45:08;2.53;;;1.75;;
47784;SDS011;35233;55.686;37.848;2023-07-20T03:47:34;3.58;;;1.55;;
47784;SDS011;35233;55.686;37.848;2023-07-20T03:49:59;3.13;;;1.70;;
47784;SDS011;35233;55.686;37.848;2023-07-20T03:52:25;2.55;;;1.55;;
47784;SDS011;35233;55.686;37.848;2023-07-20T03:54:50;1.83;;;1.40;;
47784;SDS011;35233;55.686;37.848;2023-07-20T03:57:21;3.08;;;1.60;;
47784;SDS011;35233;55.686;37.848;2023-07-20T03:59:47;3.22;;;2.25;;
47784;SDS011;35233;55.686;37.848;2023-07-20T04:02:13;1.48;;;1.27;;
47784;SDS011;35233;55.686;37.848;2023-07-20T04:04:40;1.70;;;1.42;;
47784;SDS011;35233;55.686;37.848;2023-07-20T04:07:05;1.85;;;1.40;;
47784;SDS011;35233;55.686;37.848;2023-07-20T04:09:32;2.83;;;1.60;;
47784;SDS011;35233;55.686;37.848;2023-07-20T04:11:58;2.78;;;1.48;;
47784;SDS011;35233;55.686;37.848;2023-07-20T04:14:23;2.03;;;1.50;;
47784;SDS011;35233;55.686;37.848;2023-07-20T04:16:49;3.42;;;1.90;;
47784;SDS011;35233;55.686;37.848;2023-07-20T04:19:16;2.03;;;1.50;;
47784;SDS011;35233;55.686;37.848;2023-07-20T04:21:43;1.65;;;1.30;;
47784;SDS011;35233;55.686;37.848;2023-07-20T04:24:08;1.60;;;1.50;;
47784;SDS011;35233;55.686;37.848;2023-07-20T04:26:34;3.25;;;1.50;;
47784;SDS011;35233;55.686;37.848;2023-07-20T04:29:00;2.65;;;1.70;;
47784;SDS011;35233;55.686;37.848;2023-07-20T04:31:26;1.92;;;1.30;;
47784;SDS011;35233;55.686;37.848;2023-07-20T04:33:51;2.03;;;1.30;;
47784;SDS011;35233;55.686;37.848;2023-07-20T04:36:17;1.88;;;1.52;;
47784;SDS011;35233;55.686;37.848;2023-07-20T04:38:47;1.42;;;1.30;;
47784;SDS011;35233;55.686;37.848;2023-07-20T04:41:12;1.80;;;1.40;;
47784;SDS011;35233;55.686;37.848;2023-07-20T04:43:41;1.90;;;1.23;;
47784;SDS011;35233;55.686;37.848;2023-07-20T04:46:10;2.80;;;1.40;;
47784;SDS011;35233;55.686;37.848;2023-07-20T04:48:36;2.22;;;1.60;;
47784;SDS011;35233;55.686;37.848;2023-07-20T04:51:02;2.00;;;1.40;;
47784;SDS011;35233;55.686;37.848;2023-07-20T04:53:28;2.05;;;1.20;;
47784;SDS011;35233;55.686;37.848;2023-07-20T04:55:53;2.03;;;1.50;;
47784;SDS011;35233;55.686;37.848;2023-07-20T04:58:20;2.88;;;1.52;;
47784;SDS011;35233;55.686;37.848;2023-07-20T05:00:47;2.97;;;1.70;;
47784;SDS011;35233;55.686;37.848;2023-07-20T05:03:13;1.73;;;1.27;;
47784;SDS011;35233;55.686;37.848;2023-07-20T05:05:39;1.40;;;1.30;;
47784;SDS011;35233;55.686;37.848;2023-07-20T05:08:05;2.60;;;1.50;;
47784;SDS011;35233;55.686;37.848;2023-07-20T05:10:30;2.75;;;1.30;;
47784;SDS011;35233;55.686;37.848;2023-07-20T05:12:57;2.25;;;1.48;;
47784;SDS011;35233;55.686;37.848;2023-07-20T05:15:23;2.33;;;1.55;;
47784;SDS011;35233;55.686;37.848;2023-07-20T05:17:49;1.98;;;1.30;;
47784;SDS011;35233;55.686;37.848;2023-07-20T05:20:14;1.95;;;1.27;;
47784;SDS011;35233;55.686;37.848;2023-07-20T05:22:40;1.33;;;1.10;;
47784;SDS011;35233;55.686;37.848;2023-07-20T05:25:09;2.08;;;1.27;;
47784;SDS011;35233;55.686;37.848;2023-07-20T05:27:36;3.20;;;1.63;;
47784;SDS011;35233;55.686;37.848;2023-07-20T05:30:03;1.38;;;1.27;;
47784;SDS011;35233;55.686;37.848;2023-07-20T05:32:29;2.60;;;1.25;;
47784;SDS011;35233;55.686;37.848;2023-07-20T05:34:55;1.50;;;1.13;;
47784;SDS011;35233;55.686;37.848;2023-07-20T05:37:21;1.73;;;1.20;;
47784;SDS011;35233;55.686;37.848;2023-07-20T05:39:46;1.23;;;1.13;;
47784;SDS011;35233;55.686;37.848;2023-07-20T05:42:12;1.20;;;1.10;;
47784;SDS011;35233;55.686;37.848;2023-07-20T05:44:37;4.10;;;1.50;;
47784;SDS011;35233;55.686;37.848;2023-07-20T05:47:03;2.05;;;1.20;;
47784;SDS011;35233;55.686;37.848;2023-07-20T05:49:29;2.03;;;1.38;;
47784;SDS011;35233;55.686;37.848;2023-07-20T05:51:56;1.27;;;1.13;;
47784;SDS011;35233;55.686;37.848;2023-07-20T05:54:23;1.58;;;1.20;;
47784;SDS011;35233;55.686;37.848;2023-07-20T05:56:49;1.80;;;1.30;;
47784;SDS011;35233;55.686;37.848;2023-07-20T05:59:14;3.17;;;1.27;;
47784;SDS011;35233;55.686;37.848;2023-07-20T06:01:40;1.95;;;1.40;;
47784;SDS011;35233;55.686;37.848;2023-07-20T06:04:06;1.25;;;1.10;;
47784;SDS011;35233;55.686;37.848;2023-07-20T06:06:32;3.38;;;1.40;;
47784;SDS011;35233;55.686;37.848;2023-07-20T06:08:58;1.23;;;1.13;;
47784;SDS011;35233;55.686;37.848;2023-07-20T06:11:29;1.10;;;1.00;;
47784;SDS011;35233;55.686;37.848;2023-07-20T06:13:55;1.55;;;1.30;;
47784;SDS011;35233;55.686;37.848;2023-07-20T06:16:21;1.10;;;1.05;;
47784;SDS011;35233;55.686;37.848;2023-07-20T06:18:47;1.63;;;1.20;;
47784;SDS011;35233;55.686;37.848;2023-07-20T06:21:12;3.58;;;1.48;;
47784;SDS011;35233;55.686;37.848;2023-07-20T06:23:38;1.52;;;1.10;;
47784;SDS011;35233;55.686;37.848;2023-07-20T06:26:05;1.25;;;1.15;;
47784;SDS011;35233;55.686;37.848;2023-07-20T06:28:31;2.40;;;1.20;;
47784;SDS011;35233;55.686;37.848;2023-07-20T06:31:00;1.40;;;1.27;;
47784;SDS011;35233;55.686;37.848;2023-07-20T06:33:26;1.42;;;1.23;;
47784;SDS011;35233;55.686;37.848;2023-07-20T06:35:52;0.90;;;0.90;;
47784;SDS011;35233;55.686;37.848;2023-07-20T06:38:18;1.05;;;0.93;;
47784;SDS011;35233;55.686;37.848;2023-07-20T06:40:45;1.42;;;1.20;;
47784;SDS011;35233;55.686;37.848;2023-07-20T06:43:11;1.80;;;1.70;;
47784;SDS011;35233;55.686;37.848;2023-07-20T06:45:37;1.58;;;1.42;;
47784;SDS011;35233;55.686;37.848;2023-07-20T06:48:02;1.88;;;1.17;;
47784;SDS011;35233;55.686;37.848;2023-07-20T06:50:28;1.67;;;1.23;;
47784;SDS011;35233;55.686;37.848;2023-07-20T06:52:54;2.40;;;1.90;;
47784;SDS011;35233;55.686;37.848;2023-07-20T06:55:20;2.92;;;1.90;;
47784;SDS011;35233;55.686;37.848;2023-07-20T06:57:46;4.47;;;2.40;;
47784;SDS011;35233;55.686;37.848;2023-07-20T07:00:11;3.65;;;2.55;;
47784;SDS011;35233;55.686;37.848;2023-07-20T07:02:37;4.80;;;3.03;;
47784;SDS011;35233;55.686;37.848;2023-07-20T07:05:03;4.13;;;2.90;;
47784;SDS011;35233;55.686;37.848;2023-07-20T07:07:29;4.63;;;3.30;;
47784;SDS011;35233;55.686;37.848;2023-07-20T07:09:54;5.30;;;3.65;;
47784;SDS011;35233;55.686;37.848;2023-07-20T07:12:20;5.45;;;3.28;;
47784;SDS011;35233;55.686;37.848;2023-07-20T07:14:45;5.82;;;3.78;;
47784;SDS011;35233;55.686;37.848;2023-07-20T07:17:11;6.60;;;3.83;;
47784;SDS011;35233;55.686;37.848;2023-07-20T07:19:36;5.63;;;3.90;;
47784;SDS011;35233;55.686;37.848;2023-07-20T07:22:03;5.20;;;3.80;;
47784;SDS011;35233;55.686;37.848;2023-07-20T07:24:34;8.15;;;4.30;;
47784;SDS011;35233;55.686;37.848;2023-07-20T07:27:00;7.35;;;4.18;;
47784;SDS011;35233;55.686;37.848;2023-07-20T07:29:26;5.65;;;4.03;;
47784;SDS011;35233;55.686;37.848;2023-07-20T07:31:51;5.47;;;4.07;;
47784;SDS011;35233;55.686;37.848;2023-07-20T07:34:17;5.20;;;3.70;;
47784;SDS011;35233;55.686;37.848;2023-07-20T07:36:43;5.95;;;3.90;;
47784;SDS011;35233;55.686;37.848;2023-07-20T07:39:08;5.07;;;3.60;;
47784;SDS011;35233;55.686;37.848;2023-07-20T07:41:35;6.10;;;3.72;;
47784;SDS011;35233;55.686;37.848;2023-07-20T07:44:00;5.28;;;3.72;;
47784;SDS011;35233;55.686;37.848;2023-07-20T07:46:26;6.88;;;3.50;;
47784;SDS011;35233;55.686;37.848;2023-07-20T07:48:51;5.47;;;3.50;;
47784;SDS011;35233;55.686;37.848;2023-07-20T07:51:17;5.20;;;3.30;;
47784;SDS011;35233;55.686;37.848;2023-07-20T07:53:42;5.47;;;2.97;;
47784;SDS011;35233;55.686;37.848;2023-07-20T07:56:08;4.80;;;3.28;;
47784;SDS011;35233;55.686;37.848;2023-07-20T07:58:34;5.18;;;3.30;;
47784;SDS011;35233;55.686;37.848;2023-07-20T08:01:00;4.57;;;3.05;;
47784;SDS011;35233;55.686;37.848;2023-07-20T08:03:25;4.57;;;3.10;;
47784;SDS011;35233;55.686;37.848;2023-07-20T08:05:53;4.50;;;2.80;;
47784;SDS011;35233;55.686;37.848;2023-07-20T08:08:20;3.55;;;2.50;;
47784;SDS011;35233;55.686;37.848;2023-07-20T08:10:46;5.93;;;2.80;;
47784;SDS011;35233;55.686;37.848;2023-07-20T08:13:12;5.60;;;2.90;;
47784;SDS011;35233;55.686;37.848;2023-07-20T08:15:39;5.28;;;3.00;;
47784;SDS011;35233;55.686;37.848;2023-07-20T08:18:07;3.42;;;2.65;;
47784;SDS011;35233;55.686;37.848;2023-07-20T08:20:33;6.22;;;2.47;;
47784;SDS011;35233;55.686;37.848;2023-07-20T08:23:00;5.35;;;2.78;;
47784;SDS011;35233;55.686;37.848;2023-07-20T08:25:26;6.43;;;3.00;;
47784;SDS011;35233;55.686;37.848;2023-07-20T08:27:51;5.97;;;2.80;;
47784;SDS011;35233;55.686;37.848;2023-07-20T08:30:17;4.10;;;2.75;;
47784;SDS011;35233;55.686;37.848;2023-07-20T08:32:43;4.40;;;2.40;;
47784;SDS011;35233;55.686;37.848;2023-07-20T08:35:08;3.97;;;2.25;;
47784;SDS011;35233;55.686;37.848;2023-07-20T08:37:34;4.13;;;2.60;;
47784;SDS011;35233;55.686;37.848;2023-07-20T08:39:59;4.03;;;2.42;;
47784;SDS011;35233;55.686;37.848;2023-07-20T08:42:26;3.85;;;2.45;;
47784;SDS011;35233;55.686;37.848;2023-07-20T08:44:52;3.75;;;2.50;;
47784;SDS011;35233;55.686;37.848;2023-07-20T08:47:20;4.78;;;2.60;;
47784;SDS011;35233;55.686;37.848;2023-07-20T08:49:50;5.95;;;2.33;;
47784;SDS011;35233;55.686;37.848;2023-07-20T08:52:16;3.70;;;2.35;;
47784;SDS011;35233;55.686;37.848;2023-07-20T08:54:41;4.90;;;2.15;;
47784;SDS011;35233;55.686;37.848;2023-07-20T08:57:07;3.60;;;2.35;;
47784;SDS011;35233;55.686;37.848;2023-07-20T08:59:34;4.65;;;2.30;;
47784;SDS011;35233;55.686;37.848;2023-07-20T09:02:02;3.75;;;2.25;;
47784;SDS011;35233;55.686;37.848;2023-07-20T09:04:30;5.03;;;2.50;;
47784;SDS011;35233;55.686;37.848;2023-07-20T09:06:57;5.10;;;2.45;;
47784;SDS011;35233;55.686;37.848;2023-07-20T09:09:22;4.10;;;2.33;;
47784;SDS011;35233;55.686;37.848;2023-07-20T09:11:51;4.15;;;2.20;;
47784;SDS011;35233;55.686;37.848;2023-07-20T09:14:17;2.05;;;1.85;;
47784;SDS011;35233;55.686;37.848;2023-07-20T09:16:55;3.03;;;2.15;;
47784;SDS011;35233;55.686;37.848;2023-07-20T09:19:24;4.40;;;2.10;;
47784;SDS011;35233;55.686;37.848;2023-07-20T09:21:51;5.05;;;2.25;;
47784;SDS011;35233;55.686;37.848;2023-07-20T09:24:17;3.80;;;2.00;;
47784;SDS011;35233;55.686;37.848;2023-07-20T09:26:45;3.88;;;2.08;;
47784;SDS011;35233;55.686;37.848;2023-07-20T09:29:18;4.15;;;1.90;;
47784;SDS011;35233;55.686;37.848;2023-07-20T09:31:58;4.13;;;1.90;;
47784;SDS011;35233;55.686;37.848;2023-07-20T09:34:34;2.80;;;2.17;;
47784;SDS011;35233;55.686;37.848;2023-07-20T09:36:59;2.40;;;1.63;;
47784;SDS011;35233;55.686;37.848;2023-07-20T09:39:26;2.33;;;1.80;;
47784;SDS011;35233;55.686;37.848;2023-07-20T09:41:52;4.15;;;1.88;;
47784;SDS011;35233;55.686;37.848;2023-07-20T09:44:18;3.72;;;1.90;;
47784;SDS011;35233;55.686;37.848;2023-07-20T09:46:48;3.45;;;1.88;;
47784;SDS011;35233;55.686;37.848;2023-07-20T09:49:14;4.15;;;1.83;;
47784;SDS011;35233;55.686;37.848;2023-07-20T09:51:42;2.28;;;1.65;;
47784;SDS011;35233;55.686;37.848;2023-07-20T09:54:09;2.72;;;1.60;;
47784;SDS011;35233;55.686;37.848;2023-07-20T09:56:36;3.67;;;1.90;;
47784;SDS011;35233;55.686;37.848;2023-07-20T09:59:03;3.92;;;1.70;;
47784;SDS011;35233;55.686;37.848;2023-07-20T10:01:29;2.83;;;1.95;;
47784;SDS011;35233;55.686;37.848;2023-07-20T10:03:58;3.30;;;1.80;;
47784;SDS011;35233;55.686;37.848;2023-07-20T10:06:26;3.15;;;1.60;;
47784;SDS011;35233;55.686;37.848;2023-07-20T10:08:55;3.05;;;1.80;;
47784;SDS011;35233;55.686;37.848;2023-07-20T10:11:24;2.10;;;1.42;;
47784;SDS011;35233;55.686;37.848;2023-07-20T10:13:55;4.63;;;2.38;;
47784;SDS011;35233;55.686;37.848;2023-07-20T10:16:39;3.17;;;1.95;;
47784;SDS011;35233;55.686;37.848;2023-07-20T10:19:17;3.58;;;1.60;;
47784;SDS011;35233;55.686;37.848;2023-07-20T10:22:03;3.40;;;1.60;;
47784;SDS011;35233;55.686;37.848;2023-07-20T10:24:33;2.65;;;1.80;;
47784;SDS011;35233;55.686;37.848;2023-07-20T10:27:00;6.90;;;2.30;;
47784;SDS011;35233;55.686;37.848;2023-07-20T10:29:27;4.13;;;2.10;;
47784;SDS011;35233;55.686;37.848;2023-07-20T10:31:54;3.70;;;2.17;;
47784;SDS011;35233;55.686;37.848;2023-07-20T10:34:21;6.40;;;2.40;;
47784;SDS011;35233;55.686;37.848;2023-07-20T10:36:47;5.85;;;2.83;;
47784;SDS011;35233;55.686;37.848;2023-07-20T10:39:23;6.50;;;2.80;;
47784;SDS011;35233;55.686;37.848;2023-07-20T10:41:50;6.15;;;3.20;;
47784;SDS011;35233;55.686;37.848;2023-07-20T10:44:24;5.65;;;3.58;;
47784;SDS011;35233;55.686;37.848;2023-07-20T10:46:50;6.80;;;3.95;;
47784;SDS011;35233;55.686;37.848;2023-07-20T10:49:23;5.45;;;3.40;;
47784;SDS011;35233;55.686;37.848;2023-07-20T10:51:56;5.30;;;3.70;;
47784;SDS011;35233;55.686;37.848;2023-07-20T10:56:52;5.47;;;3.72;;
47784;SDS011;35233;55.686;37.848;2023-07-20T10:59:42;6.85;;;4.80;;
47784;SDS011;35233;55.686;37.848;2023-07-20T11:02:07;7.80;;;5.63;;
47784;SDS011;35233;55.686;37.848;2023-07-20T11:04:40;7.68;;;6.20;;
47784;SDS011;35233;55.686;37.848;2023-07-20T11:07:09;8.82;;;6.85;;
47784;SDS011;35233;55.686;37.848;2023-07-20T11:09:35;8.40;;;7.00;;
47784;SDS011;35233;55.686;37.848;2023-07-20T11:12:15;10.70;;;7.28;;
47784;SDS011;35233;55.686;37.848;2023-07-20T11:17:17;8.07;;;6.30;;
47784;SDS011;35233;55.686;37.848;2023-07-20T11:19:48;7.50;;;6.20;;
47784;SDS011;35233;55.686;37.848;2023-07-20T11:22:16;7.97;;;5.90;;
47784;SDS011;35233;55.686;37.848;2023-07-20T11:24:42;8.32;;;6.25;;
47784;SDS011;35233;55.686;37.848;2023-07-20T11:27:08;7.22;;;5.47;;
47784;SDS011;35233;55.686;37.848;2023-07-20T11:29:34;7.32;;;5.55;;
47784;SDS011;35233;55.686;37.848;2023-07-20T11:32:02;7.00;;;5.25;;
47784;SDS011;35233;55.686;37.848;2023-07-20T11:34:30;8.32;;;5.47;;
47784;SDS011;35233;55.686;37.848;2023-07-20T11:36:56;6.60;;;5.07;;
47784;SDS011;35233;55.686;37.848;2023-07-20T11:39:22;6.82;;;4.90;;
47784;SDS011;35233;55.686;37.848;2023-07-20T11:41:54;6.07;;;4.55;;
47784;SDS011;35233;55.686;37.848;2023-07-20T11:44:21;6.25;;;4.68;;
47784;SDS011;35233;55.686;37.848;2023-07-20T11:47:01;6.22;;;5.03;;
47784;SDS011;35233;55.686;37.848;2023-07-20T11:49:30;6.63;;;5.40;;
47784;SDS011;35233;55.686;37.848;2023-07-20T11:52:01;6.70;;;5.10;;
47784;SDS011;35233;55.686;37.848;2023-07-20T11:54:27;7.07;;;5.45;;
47784;SDS011;35233;55.686;37.848;2023-07-20T11:56:53;5.78;;;4.82;;
47784;SDS011;35233;55.686;37.848;2023-07-20T11:59:20;8.38;;;5.45;;
47784;SDS011;35233;55.686;37.848;2023-07-20T12:01:46;8.98;;;6.68;;
47784;SDS011;35233;55.686;37.848;2023-07-20T12:04:22;8.27;;;6.75;;
47784;SDS011;35233;55.686;37.848;2023-07-20T12:06:48;9.27;;;7.13;;
47784;SDS011;35233;55.686;37.848;2023-07-20T12:09:14;8.55;;;6.90;;
47784;SDS011;35233;55.686;37.848;2023-07-20T12:11:42;8.00;;;6.22;;
47784;SDS011;35233;55.686;37.848;2023-07-20T12:14:09;6.95;;;5.65;;
47784;SDS011;35233;55.686;37.848;2023-07-20T12:16:36;10.80;;;5.95;;
47784;SDS011;35233;55.686;37.848;2023-07-20T12:19:07;6.63;;;5.03;;
47784;SDS011;35233;55.686;37.848;2023-07-20T12:21:37;6.90;;;5.10;;
47784;SDS011;35233;55.686;37.848;2023-07-20T12:24:04;6.28;;;5.00;;
47784;SDS011;35233;55.686;37.848;2023-07-20T12:26:30;6.28;;;4.55;;
47784;SDS011;35233;55.686;37.848;2023-07-20T12:28:57;7.40;;;4.40;;
47784;SDS011;35233;55.686;37.848;2023-07-20T12:31:23;7.00;;;4.53;;
47784;SDS011;35233;55.686;37.848;2023-07-20T12:33:52;6.10;;;4.60;;
47784;SDS011;35233;55.686;37.848;2023-07-20T12:36:20;7.38;;;4.40;;
47784;SDS011;35233;55.686;37.848;2023-07-20T12:38:46;5.18;;;3.92;;
47784;SDS011;35233;55.686;37.848;2023-07-20T12:41:12;5.75;;;3.90;;
47784;SDS011;35233;55.686;37.848;2023-07-20T12:43:39;5.85;;;3.95;;
47784;SDS011;35233;55.686;37.848;2023-07-20T12:46:06;8.73;;;4.53;;
47784;SDS011;35233;55.686;37.848;2023-07-20T12:48:32;5.50;;;3.75;;
47784;SDS011;35233;55.686;37.848;2023-07-20T12:50:58;7.22;;;4.22;;
47784;SDS011;35233;55.686;37.848;2023-07-20T12:53:23;5.50;;;3.67;;
47784;SDS011;35233;55.686;37.848;2023-07-20T12:55:49;9.32;;;4.15;;
47784;SDS011;35233;55.686;37.848;2023-07-20T12:58:15;6.72;;;3.88;;
47784;SDS011;35233;55.686;37.848;2023-07-20T13:00:40;4.45;;;3.47;;
47784;SDS011;35233;55.686;37.848;2023-07-20T13:03:08;5.10;;;4.00;;
47784;SDS011;35233;55.686;37.848;2023-07-20T13:05:51;5.78;;;3.63;;
47784;SDS011;35233;55.686;37.848;2023-07-20T13:08:17;6.35;;;3.78;;
47784;SDS011;35233;55.686;37.848;2023-07-20T13:10:43;5.85;;;3.90;;
47784;SDS011;35233;55.686;37.848;2023-07-20T13:13:09;4.68;;;3.22;;
47784;SDS011;35233;55.686;37.848;2023-07-20T13:15:41;5.60;;;3.47;;
47784;SDS011;35233;55.686;37.848;2023-07-20T13:18:08;5.47;;;3.40;;
47784;SDS011;35233;55.686;37.848;2023-07-20T13:20:34;6.00;;;3.70;;
47784;SDS011;35233;55.686;37.848;2023-07-20T13:22:59;5.55;;;3.58;;
47784;SDS011;35233;55.686;37.848;2023-07-20T13:25:25;5.32;;;3.50;;
47784;SDS011;35233;55.686;37.848;2023-07-20T13:27:51;4.70;;;3.28;;
47784;SDS011;35233;55.686;37.848;2023-07-20T13:30:16;5.72;;;3.47;;
47784;SDS011;35233;55.686;37.848;2023-07-20T13:32:44;5.22;;;3.60;;
47784;SDS011;35233;55.686;37.848;2023-07-20T13:35:11;6.00;;;3.50;;
47784;SDS011;35233;55.686;37.848;2023-07-20T13:37:37;5.03;;;3.40;;
47784;SDS011;35233;55.686;37.848;2023-07-20T13:40:04;5.75;;;3.40;;
47784;SDS011;35233;55.686;37.848;2023-07-20T13:42:43;5.38;;;3.45;;
47784;SDS011;35233;55.686;37.848;2023-07-20T13:45:10;5.10;;;3.33;;
47784;SDS011;35233;55.686;37.848;2023-07-20T13:47:35;4.75;;;3.20;;
47784;SDS011;35233;55.686;37.848;2023-07-20T13:50:01;5.22;;;3.38;;
47784;SDS011;35233;55.686;37.848;2023-07-20T13:52:26;7.75;;;3.97;;
47784;SDS011;35233;55.686;37.848;2023-07-20T13:54:52;4.63;;;3.17;;
47784;SDS011;35233;55.686;37.848;2023-07-20T13:57:18;5.72;;;3.20;;
47784;SDS011;35233;55.686;37.848;2023-07-20T13:59:43;4.10;;;3.03;;
47784;SDS011;35233;55.686;37.848;2023-07-20T14:02:09;6.05;;;3.35;;
47784;SDS011;35233;55.686;37.848;2023-07-20T14:04:35;6.63;;;3.35;;
47784;SDS011;35233;55.686;37.848;2023-07-20T14:07:01;5.57;;;3.20;;
47784;SDS011;35233;55.686;37.848;2023-07-20T14:09:29;4.53;;;3.03;;
47784;SDS011;35233;55.686;37.848;2023-07-20T14:11:54;4.60;;;3.03;;
47784;SDS011;35233;55.686;37.848;2023-07-20T14:14:21;7.60;;;3.33;;
47784;SDS011;35233;55.686;37.848;2023-07-20T14:16:46;6.53;;;3.00;;
47784;SDS011;35233;55.686;37.848;2023-07-20T14:19:12;4.25;;;3.03;;
47784;SDS011;35233;55.686;37.848;2023-07-20T14:21:37;6.30;;;2.83;;
47784;SDS011;35233;55.686;37.848;2023-07-20T14:24:03;4.97;;;3.10;;
47784;SDS011;35233;55.686;37.848;2023-07-20T14:26:29;5.90;;;2.90;;
47784;SDS011;35233;55.686;37.848;2023-07-20T14:28:54;4.18;;;2.80;;
47784;SDS011;35233;55.686;37.848;2023-07-20T14:31:20;3.97;;;2.83;;
47784;SDS011;35233;55.686;37.848;2023-07-20T14:33:46;4.40;;;2.80;;
47784;SDS011;35233;55.686;37.848;2023-07-20T14:36:12;4.80;;;2.85;;
47784;SDS011;35233;55.686;37.848;2023-07-20T14:38:39;5.50;;;2.97;;
47784;SDS011;35233;55.686;37.848;2023-07-20T14:41:05;3.90;;;2.65;;
47784;SDS011;35233;55.686;37.848;2023-07-20T14:43:32;4.25;;;2.78;;
47784;SDS011;35233;55.686;37.848;2023-07-20T14:45:57;7.72;;;3.00;;
47784;SDS011;35233;55.686;37.848;2023-07-20T14:48:23;4.55;;;2.90;;